Time;durP1;ratioP1;P1;durP2;ratioP2;P2;SDS_P1;SDS_P2;PMS_P1;PMS_P2;Temp;Humidity;BMP_temperature;BMP_pressure;BME280_temperature;BME280_humidity;BME280_pressure;Samples;Min_cycle;Max_cycle;Signal;HPM_P1;HPM_P2
2022/04/08 00:02:03;;;;;;;6.97;1.92;;;5.30;99.90;;;;;;4976443;28;20401;-66
2022/04/08 00:04:30;;;;;;;4.97;1.02;;;5.30;99.90;;;;;;4980874;28;20075;-65
2022/04/08 00:06:56;;;;;;;5.45;1.10;;;5.30;99.90;;;;;;4979385;28;20458;-67
2022/04/08 00:09:22;;;;;;;2.97;0.90;;;5.20;99.90;;;;;;5014241;28;20556;-66
2022/04/08 00:11:48;;;;;;;10.13;2.05;;;5.20;99.90;;;;;;4991405;28;20120;-65
2022/04/08 00:14:14;;;;;;;7.50;1.38;;;5.20;99.90;;;;;;4979004;28;20742;-65
2022/04/08 00:16:40;;;;;;;8.27;1.10;;;5.20;99.90;;;;;;4961882;28;20048;-65
2022/04/08 00:19:06;;;;;;;5.75;1.27;;;5.30;99.90;;;;;;4993507;28;20057;-66
2022/04/08 00:21:32;;;;;;;5.22;1.67;;;5.30;99.90;;;;;;4985936;28;20099;-66
2022/04/08 00:23:58;;;;;;;9.80;1.40;;;5.30;99.90;;;;;;4973394;28;20073;-65
2022/04/08 00:26:23;;;;;;;8.55;2.03;;;5.30;99.90;;;;;;5002983;28;20045;-67
2022/04/08 00:28:49;;;;;;;5.35;1.20;;;5.30;99.90;;;;;;4994975;28;20057;-63
2022/04/08 00:31:15;;;;;;;10.38;1.38;;;5.20;99.90;;;;;;5009150;28;20041;-66
2022/04/08 00:33:41;;;;;;;10.27;1.95;;;5.20;99.90;;;;;;4992572;28;21396;-63
2022/04/08 00:36:06;;;;;;;10.05;1.50;;;5.20;99.90;;;;;;4990562;28;20050;-64
2022/04/08 00:38:32;;;;;;;10.07;2.40;;;5.10;99.90;;;;;;5013849;28;20032;-67
2022/04/08 00:40:59;;;;;;;9.95;1.80;;;5.00;99.90;;;;;;4992596;28;20041;-66
2022/04/08 00:43:36;;;;;;;14.10;2.17;;;4.90;99.90;;;;;;4968189;28;20461;-67
2022/04/08 00:46:04;;;;;;;13.48;2.35;;;4.90;99.90;;;;;;4967127;28;20060;-65
2022/04/08 00:48:30;;;;;;;5.97;1.45;;;4.90;99.90;;;;;;4976731;28;20425;-65
2022/04/08 00:50:56;;;;;;;7.95;1.70;;;4.90;99.90;;;;;;4997199;28;20045;-64
2022/04/08 00:53:23;;;;;;;12.80;1.52;;;4.90;99.90;;;;;;4983629;28;20049;-66
2022/04/08 00:55:49;;;;;;;8.63;1.73;;;4.90;99.90;;;;;;4985657;28;22279;-65
2022/04/08 00:58:16;;;;;;;6.45;1.50;;;5.00;99.90;;;;;;4997396;28;20271;-64
2022/04/08 01:00:42;;;;;;;6.30;1.38;;;5.00;99.90;;;;;;4976970;28;20049;-66
2022/04/08 01:03:08;;;;;;;6.85;1.13;;;5.10;99.90;;;;;;4987134;28;20049;-65
2022/04/08 01:05:35;;;;;;;8.10;1.48;;;5.20;99.90;;;;;;5005234;28;20113;-65
2022/04/08 01:08:02;;;;;;;10.23;1.92;;;5.20;99.90;;;;;;4977843;28;20271;-64
2022/04/08 01:10:28;;;;;;;10.50;1.92;;;5.20;99.90;;;;;;4981939;28;20044;-66
2022/04/08 01:12:54;;;;;;;15.43;2.00;;;5.30;99.90;;;;;;4989614;28;21152;-65
2022/04/08 01:15:22;;;;;;;10.90;1.98;;;5.30;99.90;;;;;;4973670;28;20045;-64
2022/04/08 01:17:49;;;;;;;12.82;1.80;;;5.30;99.90;;;;;;4989767;28;20065;-65
2022/04/08 01:20:16;;;;;;;13.70;2.10;;;5.30;99.90;;;;;;5015536;23;20132;-56
2022/04/08 01:22:42;;;;;;;15.23;2.00;;;5.30;99.90;;;;;;5006780;28;20037;-58
2022/04/08 01:25:09;;;;;;;10.55;2.17;;;5.30;99.90;;;;;;4987331;28;20064;-57
2022/04/08 01:27:35;;;;;;;14.02;2.63;;;5.30;99.90;;;;;;5005590;28;20053;-57
2022/04/08 01:30:03;;;;;;;12.98;2.38;;;5.30;99.90;;;;;;5015068;28;20037;-57
2022/04/08 01:32:29;;;;;;;17.38;2.90;;;5.30;99.90;;;;;;4991868;28;20068;-58
2022/04/08 01:34:55;;;;;;;11.32;2.50;;;5.30;99.90;;;;;;5014598;28;20085;-56
2022/04/08 01:37:21;;;;;;;8.52;1.63;;;5.30;99.90;;;;;;5011158;28;20494;-57
2022/04/08 01:39:46;;;;;;;15.30;2.50;;;5.20;99.90;;;;;;5006555;28;20045;-56
2022/04/08 01:42:13;;;;;;;14.02;2.25;;;5.30;99.90;;;;;;5014825;28;20767;-56
2022/04/08 01:44:39;;;;;;;19.65;2.35;;;5.30;99.90;;;;;;5027843;28;20172;-57
2022/04/08 01:47:05;;;;;;;13.55;2.55;;;5.20;99.90;;;;;;5035936;28;20034;-56
2022/04/08 01:49:31;;;;;;;11.30;2.53;;;5.30;99.90;;;;;;4985703;28;20130;-57
2022/04/08 01:51:56;;;;;;;18.38;3.15;;;5.30;99.90;;;;;;4985536;28;20551;-57
2022/04/08 01:54:22;;;;;;;14.90;2.85;;;5.20;99.90;;;;;;5003938;28;20049;-56
2022/04/08 01:56:48;;;;;;;16.83;2.78;;;5.20;99.90;;;;;;5003848;28;20057;-56
2022/04/08 01:59:14;;;;;;;23.35;2.55;;;5.30;99.90;;;;;;5010619;28;20413;-57
2022/04/08 02:01:40;;;;;;;9.15;1.70;;;5.30;99.90;;;;;;5004202;28;20049;-59
2022/04/08 02:04:06;;;;;;;11.15;1.92;;;4.90;99.90;;;;;;5005592;28;20483;-56
2022/04/08 02:06:32;;;;;;;15.25;2.38;;;4.80;99.90;;;;;;5009753;28;20060;-57
2022/04/08 02:08:58;;;;;;;8.40;1.73;;;4.70;99.90;;;;;;4997167;28;20045;-57
2022/04/08 02:11:24;;;;;;;10.05;2.30;;;4.60;99.90;;;;;;5002818;28;20319;-58
2022/04/08 02:13:50;;;;;;;9.75;1.45;;;4.50;99.90;;;;;;5008826;28;20059;-55
2022/04/08 02:16:16;;;;;;;10.65;1.90;;;4.50;99.90;;;;;;5001881;28;20040;-57
2022/04/08 02:18:42;;;;;;;11.10;1.50;;;4.50;99.90;;;;;;5002542;28;20041;-57
2022/04/08 02:21:09;;;;;;;8.00;2.30;;;4.50;99.90;;;;;;5015442;28;20123;-56
2022/04/08 02:23:36;;;;;;;4.80;1.40;;;4.50;99.90;;;;;;4998450;28;20136;-55
2022/04/08 02:26:05;;;;;;;10.85;3.40;;;4.60;99.90;;;;;;4988570;28;20494;-55
2022/04/08 02:28:32;;;;;;;11.60;2.08;;;4.60;99.90;;;;;;5010876;28;20081;-56
2022/04/08 02:30:58;;;;;;;10.23;1.85;;;4.60;99.90;;;;;;5009011;28;20056;-57
2022/04/08 02:33:24;;;;;;;14.68;1.80;;;4.70;99.90;;;;;;4999543;28;20116;-57
2022/04/08 02:35:50;;;;;;;11.52;1.65;;;4.70;99.90;;;;;;5013426;28;20132;-55
2022/04/08 02:38:16;;;;;;;19.02;2.95;;;4.70;99.90;;;;;;5000956;28;20052;-57
2022/04/08 02:40:41;;;;;;;16.25;2.85;;;4.80;99.90;;;;;;5003887;28;20052;-54
2022/04/08 02:43:07;;;;;;;12.15;3.10;;;4.90;99.90;;;;;;5025678;28;20045;-57
2022/04/08 02:45:33;;;;;;;12.38;1.88;;;5.00;99.90;;;;;;5005649;28;20049;-55
2022/04/08 02:47:58;;;;;;;14.35;2.40;;;5.00;99.90;;;;;;5011396;28;20107;-57
2022/04/08 02:50:24;;;;;;;10.88;2.03;;;5.00;99.90;;;;;;4989148;28;20041;-56
2022/04/08 02:52:50;;;;;;;15.43;2.33;;;5.00;99.90;;;;;;5010313;28;20041;-58
2022/04/08 02:55:16;;;;;;;10.73;2.20;;;5.10;99.90;;;;;;5022114;28;20098;-57
2022/04/08 02:57:46;;;;;;;9.20;2.10;;;5.10;99.90;;;;;;5006648;28;20037;-57
2022/04/08 03:00:19;;;;;;;15.45;2.92;;;5.10;99.90;;;;;;5006510;28;20052;-57
2022/04/08 03:02:46;;;;;;;13.65;2.15;;;5.00;99.90;;;;;;5007450;28;20041;-56
2022/04/08 03:05:12;;;;;;;19.67;4.65;;;5.10;99.90;;;;;;5003105;28;20045;-57
2022/04/08 03:07:38;;;;;;;12.85;2.55;;;5.10;99.90;;;;;;4995056;28;20449;-57
2022/04/08 03:10:06;;;;;;;13.80;2.28;;;5.20;99.90;;;;;;5005801;28;21394;-57
2022/04/08 03:12:32;;;;;;;27.73;3.20;;;5.20;99.90;;;;;;4996940;28;20052;-58
2022/04/08 03:14:59;;;;;;;12.68;2.67;;;5.30;99.90;;;;;;5028453;28;20037;-56
2022/04/08 03:17:25;;;;;;;17.38;3.13;;;5.30;99.90;;;;;;5005569;28;20041;-52
2022/04/08 03:19:51;;;;;;;12.85;3.38;;;5.40;99.90;;;;;;4993474;28;20589;-57
2022/04/08 03:22:20;;;;;;;9.60;1.95;;;5.40;99.90;;;;;;5016572;28;20041;-57
2022/04/08 03:24:50;;;;;;;17.42;2.33;;;5.50;99.90;;;;;;4993810;28;20375;-57
2022/04/08 03:27:17;;;;;;;5.85;1.30;;;5.50;99.90;;;;;;5008492;28;20080;-56
2022/04/08 03:29:43;;;;;;;5.75;0.95;;;5.00;99.90;;;;;;5001906;28;20033;-57
2022/04/08 03:32:09;;;;;;;4.60;1.60;;;4.80;99.90;;;;;;5036021;28;20037;-56
2022/04/08 03:34:38;;;;;;;5.88;0.90;;;4.20;99.90;;;;;;5015316;28;20032;-57
2022/04/08 03:37:04;;;;;;;3.88;1.00;;;3.90;99.90;;;;;;5011708;28;20110;-57
2022/04/08 03:39:30;;;;;;;8.57;0.93;;;3.80;99.90;;;;;;5013635;28;20049;-57
2022/04/08 03:41:57;;;;;;;3.58;1.10;;;3.80;99.90;;;;;;5010465;28;20118;-57
2022/04/08 03:44:22;;;;;;;3.58;0.98;;;3.70;99.90;;;;;;5013833;28;20292;-55
2022/04/08 03:46:49;;;;;;;7.20;1.70;;;3.80;99.90;;;;;;5001178;28;20065;-58
2022/04/08 03:49:15;;;;;;;5.03;0.88;;;3.80;99.90;;;;;;4995383;28;20224;-56
2022/04/08 03:51:42;;;;;;;4.03;1.15;;;3.80;99.90;;;;;;5005924;28;20433;-56
2022/04/08 03:54:08;;;;;;;7.10;1.02;;;3.90;99.90;;;;;;5006340;28;20494;-55
2022/04/08 03:56:35;;;;;;;4.25;1.00;;;4.00;99.90;;;;;;5005247;28;20037;-56
2022/04/08 03:59:01;;;;;;;6.05;1.42;;;4.00;99.90;;;;;;5011318;28;20524;-57
2022/04/08 04:01:26;;;;;;;5.18;1.23;;;4.10;99.90;;;;;;5015579;28;20132;-55
2022/04/08 04:03:52;;;;;;;5.15;1.10;;;4.10;99.90;;;;;;5011642;28;20041;-55
2022/04/08 04:06:18;;;;;;;2.80;0.98;;;4.20;99.90;;;;;;5002124;28;20040;-56
2022/04/08 04:08:44;;;;;;;6.00;1.38;;;4.10;99.90;;;;;;4997504;28;20033;-57
2022/04/08 04:11:20;;;;;;;5.10;0.80;;;4.10;99.90;;;;;;5009027;28;20052;-56
2022/04/08 04:13:46;;;;;;;7.40;1.95;;;4.20;99.90;;;;;;5007891;28;20220;-57
2022/04/08 04:16:12;;;;;;;4.53;1.40;;;4.30;99.90;;;;;;5011276;28;20048;-56
2022/04/08 04:18:38;;;;;;;12.30;1.95;;;4.40;99.90;;;;;;5010403;28;20079;-56
2022/04/08 04:21:04;;;;;;;6.07;1.95;;;4.50;99.90;;;;;;5018397;28;20039;-54
2022/04/08 04:23:33;;;;;;;6.35;1.30;;;4.60;99.90;;;;;;5016310;28;20037;-56
2022/04/08 04:26:00;;;;;;;8.10;1.65;;;4.40;99.90;;;;;;5010206;28;20037;-55
2022/04/08 04:28:30;;;;;;;6.13;1.30;;;4.30;99.90;;;;;;5011614;28;20047;-56
2022/04/08 04:30:59;;;;;;;3.33;1.00;;;4.20;99.90;;;;;;5009813;28;20605;-56
2022/04/08 04:33:25;;;;;;;5.07;1.10;;;4.20;99.90;;;;;;5000672;28;20045;-57
2022/04/08 04:35:51;;;;;;;4.85;1.80;;;4.30;99.90;;;;;;5006704;28;20047;-56
2022/04/08 04:38:17;;;;;;;3.63;1.10;;;4.30;99.90;;;;;;4983185;28;20037;-56
2022/04/08 04:40:42;;;;;;;4.85;1.20;;;4.30;99.90;;;;;;5000659;28;20384;-56
2022/04/08 04:43:08;;;;;;;4.55;1.27;;;4.30;99.90;;;;;;5006631;28;20037;-57
2022/04/08 04:45:37;;;;;;;4.38;1.38;;;4.30;99.90;;;;;;5010066;28;20045;-57
2022/04/08 04:48:04;;;;;;;4.30;1.15;;;4.30;99.90;;;;;;5004639;28;20033;-56
2022/04/08 04:50:30;;;;;;;5.30;1.35;;;4.30;99.90;;;;;;5013696;28;20036;-57
2022/04/08 04:52:55;;;;;;;3.85;1.10;;;4.30;99.90;;;;;;5007241;28;20041;-56
2022/04/08 04:55:21;;;;;;;2.78;1.10;;;4.40;99.90;;;;;;4992877;28;20036;-58
2022/04/08 04:57:47;;;;;;;4.70;0.90;;;4.40;99.90;;;;;;5014408;28;20058;-57
2022/04/08 05:00:13;;;;;;;2.22;0.98;;;4.30;99.90;;;;;;5008772;28;20137;-57
2022/04/08 05:02:39;;;;;;;7.32;1.40;;;4.30;99.90;;;;;;4999468;28;20033;-58
2022/04/08 05:05:06;;;;;;;3.28;1.10;;;4.30;99.90;;;;;;5003627;28;20534;-56
2022/04/08 05:07:32;;;;;;;2.88;1.02;;;4.30;99.90;;;;;;4995398;28;20045;-57
2022/04/08 05:12:25;;;;;;;3.80;1.40;;;4.40;99.90;;;;;;5012640;28;20049;-55
2022/04/08 05:14:51;;;;;;;3.42;1.10;;;4.30;99.90;;;;;;4974886;28;20041;-56
2022/04/08 05:17:17;;;;;;;2.88;1.25;;;4.30;99.90;;;;;;4992060;28;21061;-56
2022/04/08 05:19:42;;;;;;;4.30;1.40;;;4.30;99.90;;;;;;4988185;28;20049;-55
2022/04/08 05:22:08;;;;;;;3.65;1.20;;;4.30;99.90;;;;;;4968178;28;20057;-56
2022/04/08 05:24:34;;;;;;;4.43;1.75;;;4.30;99.90;;;;;;4984549;28;20056;-56
2022/04/08 05:26:59;;;;;;;7.03;1.52;;;4.40;99.90;;;;;;4976240;28;20103;-56
2022/04/08 05:29:25;;;;;;;9.52;3.45;;;4.40;99.90;;;;;;4983433;28;20049;-56
2022/04/08 05:31:51;;;;;;;8.82;1.67;;;4.40;99.90;;;;;;5009892;28;20041;-55
2022/04/08 05:34:17;;;;;;;5.70;1.65;;;4.50;99.90;;;;;;4991341;28;20054;-56
2022/04/08 05:36:42;;;;;;;6.30;2.10;;;4.50;99.90;;;;;;4961269;28;20056;-56
2022/04/08 05:39:08;;;;;;;9.18;1.98;;;4.60;99.90;;;;;;4984150;28;20085;-55
2022/04/08 05:41:34;;;;;;;7.30;2.75;;;4.60;99.90;;;;;;4994119;28;20057;-55
2022/04/08 05:44:00;;;;;;;9.80;2.40;;;4.60;99.90;;;;;;5004289;28;20502;-57
2022/04/08 05:46:26;;;;;;;6.00;1.98;;;4.60;99.90;;;;;;4991992;28;20083;-56
2022/04/08 05:48:52;;;;;;;6.68;1.60;;;4.60;99.90;;;;;;4989487;28;20045;-57
2022/04/08 05:51:17;;;;;;;7.15;1.80;;;4.60;99.90;;;;;;4973659;28;20071;-57
2022/04/08 05:53:43;;;;;;;10.80;2.90;;;4.70;99.90;;;;;;5001384;28;20070;-57
2022/04/08 05:56:09;;;;;;;9.07;2.03;;;4.70;99.90;;;;;;4984979;28;20057;-57
2022/04/08 05:58:35;;;;;;;20.70;3.03;;;4.80;99.90;;;;;;4979597;28;20077;-56
2022/04/08 06:01:01;;;;;;;6.40;1.95;;;4.80;99.90;;;;;;4975984;28;20041;-56
2022/04/08 06:03:27;;;;;;;14.52;2.03;;;4.80;99.90;;;;;;4988996;28;20045;-55
2022/04/08 06:05:53;;;;;;;11.40;2.25;;;4.90;99.90;;;;;;4986183;28;20040;-56
2022/04/08 06:08:19;;;;;;;7.80;1.65;;;5.00;99.90;;;;;;4969005;28;20033;-55
2022/04/08 06:10:44;;;;;;;7.90;2.22;;;5.10;99.90;;;;;;4970524;28;20457;-57
2022/04/08 06:13:10;;;;;;;8.50;1.92;;;5.20;99.90;;;;;;4991248;28;20041;-54
2022/04/08 06:15:36;;;;;;;5.80;1.80;;;5.20;99.90;;;;;;4997977;28;20048;-55
2022/04/08 06:18:02;;;;;;;12.85;2.38;;;5.30;99.90;;;;;;4987056;28;20053;-57
2022/04/08 06:20:28;;;;;;;8.45;1.88;;;5.40;99.90;;;;;;4991187;28;20442;-57
2022/04/08 06:22:54;;;;;;;8.00;1.77;;;5.50;99.90;;;;;;4983597;28;20077;-56
2022/04/08 06:25:24;;;;;;;8.90;1.92;;;5.50;99.90;;;;;;4981476;28;20108;-53
2022/04/08 06:28:03;;;;;;;9.18;2.72;;;5.60;99.90;;;;;;4986468;28;20077;-54
2022/04/08 06:30:30;;;;;;;9.65;2.90;;;5.60;99.90;;;;;;4970748;28;20491;-55
2022/04/08 06:32:55;;;;;;;10.57;2.72;;;5.70;99.90;;;;;;4970868;28;20263;-56
2022/04/08 06:35:21;;;;;;;10.80;2.47;;;5.80;99.90;;;;;;4989451;28;20041;-56
2022/04/08 06:37:48;;;;;;;8.10;3.30;;;5.90;99.90;;;;;;4987154;28;20034;-56
2022/04/08 06:40:14;;;;;;;12.02;3.13;;;6.00;99.90;;;;;;4986986;28;20498;-56
2022/04/08 06:42:40;;;;;;;8.82;1.90;;;5.90;99.90;;;;;;4984027;28;20045;-57
2022/04/08 06:45:07;;;;;;;7.50;1.92;;;5.90;99.90;;;;;;5004902;28;20033;-56
2022/04/08 06:47:33;;;;;;;7.05;1.73;;;5.80;99.90;;;;;;4987805;28;20405;-57
2022/04/08 06:49:59;;;;;;;11.07;1.83;;;5.70;99.90;;;;;;4994218;28;20038;-56
2022/04/08 06:52:25;;;;;;;6.47;1.90;;;5.70;99.90;;;;;;4990785;28;20046;-55
2022/04/08 06:54:51;;;;;;;14.10;1.85;;;5.80;99.90;;;;;;4991801;28;20061;-56
2022/04/08 06:57:16;;;;;;;11.98;2.85;;;5.70;99.90;;;;;;4967715;28;20041;-55
2022/04/08 06:59:42;;;;;;;10.02;2.25;;;5.80;99.90;;;;;;4966873;28;20558;-55
2022/04/08 07:02:10;;;;;;;18.00;4.47;;;6.00;99.90;;;;;;4990498;28;20301;-57
2022/04/08 07:04:36;;;;;;;8.02;2.03;;;6.10;99.90;;;;;;4971248;28;20095;-56
2022/04/08 07:07:06;;;;;;;6.55;2.00;;;6.20;99.90;;;;;;4979188;28;20088;-55
2022/04/08 07:09:35;;;;;;;7.40;1.70;;;6.40;99.90;;;;;;4985600;28;20038;-56
2022/04/08 07:12:01;;;;;;;6.32;1.50;;;6.60;99.90;;;;;;4977252;28;20050;-57
2022/04/08 07:14:27;;;;;;;10.27;1.83;;;6.70;99.90;;;;;;4986946;28;20029;-56
2022/04/08 07:16:53;;;;;;;6.75;1.70;;;6.90;99.90;;;;;;5002840;28;20034;-58
2022/04/08 07:19:19;;;;;;;9.63;1.90;;;7.00;99.90;;;;;;4993310;28;20060;-56
2022/04/08 07:21:45;;;;;;;9.95;2.22;;;7.20;99.90;;;;;;5013589;28;20419;-57
2022/04/08 07:24:10;;;;;;;8.00;2.05;;;7.20;99.90;;;;;;4980791;28;20409;-54
2022/04/08 07:26:36;;;;;;;8.05;1.88;;;7.20;99.90;;;;;;4986389;28;20050;-57
2022/04/08 07:29:02;;;;;;;12.88;1.88;;;7.10;99.90;;;;;;4978242;28;20041;-57
2022/04/08 07:31:28;;;;;;;15.38;2.05;;;7.00;99.90;;;;;;4991550;28;20060;-57
2022/04/08 07:33:54;;;;;;;8.05;1.67;;;7.00;99.90;;;;;;4983542;28;20116;-56
2022/04/08 07:36:19;;;;;;;7.00;1.58;;;7.00;99.90;;;;;;4994634;28;20109;-55
2022/04/08 07:38:45;;;;;;;8.00;1.70;;;7.10;99.90;;;;;;4992393;28;20247;-57
2022/04/08 07:41:11;;;;;;;8.55;1.73;;;7.20;99.90;;;;;;4990159;28;20053;-55
2022/04/08 07:43:37;;;;;;;10.02;1.60;;;7.40;99.90;;;;;;5004420;28;20074;-57
2022/04/08 07:46:02;;;;;;;11.10;1.80;;;7.50;99.90;;;;;;4992626;28;20096;-57
2022/04/08 07:48:28;;;;;;;7.43;1.20;;;7.50;99.90;;;;;;4965198;28;20123;-57
2022/04/08 07:50:54;;;;;;;9.00;1.70;;;7.60;99.90;;;;;;4990066;28;20083;-56
2022/04/08 07:53:20;;;;;;;10.88;1.50;;;7.50;99.90;;;;;;4964939;28;20034;-57
2022/04/08 07:55:46;;;;;;;11.13;1.95;;;7.60;99.90;;;;;;4981840;28;20063;-57
2022/04/08 07:58:11;;;;;;;6.63;1.25;;;7.60;99.90;;;;;;4979896;28;20084;-58
2022/04/08 08:00:37;;;;;;;9.52;1.70;;;7.60;99.90;;;;;;4976229;28;21692;-57
2022/04/08 08:03:03;;;;;;;7.25;1.25;;;7.60;99.90;;;;;;4974183;28;20041;-57
2022/04/08 08:05:31;;;;;;;6.88;1.58;;;7.60;99.90;;;;;;4986737;28;20072;-57
2022/04/08 08:07:59;;;;;;;8.63;1.58;;;7.70;99.90;;;;;;4977773;28;20049;-57
2022/04/08 08:10:31;;;;;;;10.43;2.22;;;7.80;99.90;;;;;;4994474;28;20500;-57
2022/04/08 08:13:00;;;;;;;7.78;1.90;;;7.50;99.90;;;;;;4980314;28;20069;-57
2022/04/08 08:15:28;;;;;;;8.63;1.45;;;7.60;99.90;;;;;;4978853;28;21255;-57
2022/04/08 08:17:55;;;;;;;4.15;1.25;;;7.70;99.90;;;;;;4991392;28;20060;-56
2022/04/08 08:20:22;;;;;;;7.50;1.35;;;7.90;99.90;;;;;;4985123;28;20531;-56
2022/04/08 08:22:50;;;;;;;8.60;1.95;;;7.90;99.90;;;;;;4981104;28;20060;-57
2022/04/08 08:25:17;;;;;;;5.35;1.33;;;7.90;99.90;;;;;;4978258;28;20041;-57
2022/04/08 08:27:44;;;;;;;4.93;1.10;;;7.90;99.90;;;;;;4972520;28;20053;-57
2022/04/08 08:30:13;;;;;;;6.15;1.30;;;8.10;99.90;;;;;;4961947;28;20388;-57
2022/04/08 08:32:45;;;;;;;5.88;1.30;;;8.20;99.90;;;;;;4976812;28;20050;-57
2022/04/08 08:35:17;;;;;;;7.65;1.65;;;8.20;99.90;;;;;;4983375;28;20505;-57
2022/04/08 08:37:43;;;;;;;6.20;1.60;;;8.20;99.90;;;;;;4964182;28;20034;-57
2022/04/08 08:40:11;;;;;;;8.43;1.88;;;8.40;99.90;;;;;;4988686;28;20041;-58
2022/04/08 08:42:38;;;;;;;6.30;1.30;;;8.30;99.90;;;;;;4979289;28;20132;-57
2022/04/08 08:45:09;;;;;;;7.45;1.40;;;8.20;99.90;;;;;;4982824;28;20437;-57
2022/04/08 08:47:35;;;;;;;11.40;2.70;;;8.50;99.90;;;;;;4998611;28;20047;-56
2022/04/08 08:50:02;;;;;;;4.72;1.30;;;8.50;99.90;;;;;;4984017;28;20089;-57
2022/04/08 08:52:29;;;;;;;5.85;1.27;;;8.50;99.90;;;;;;4994197;28;20083;-57
2022/04/08 08:54:55;;;;;;;7.10;1.38;;;8.40;99.80;;;;;;4987126;28;20033;-55
2022/04/08 08:57:22;;;;;;;6.85;1.20;;;8.60;99.90;;;;;;4993784;28;20056;-56
2022/04/08 08:59:51;;;;;;;3.95;1.00;;;8.70;99.90;;;;;;4993411;28;20045;-56
2022/04/08 09:02:18;;;;;;;5.28;1.15;;;8.70;99.60;;;;;;4988627;28;20053;-56
2022/04/08 09:04:45;;;;;;;4.35;1.17;;;8.60;99.60;;;;;;4990015;28;20130;-56
2022/04/08 09:07:29;;;;;;;2.75;1.10;;;8.90;99.90;;;;;;4998298;28;20574;-57
2022/04/08 09:09:57;;;;;;;4.65;1.15;;;8.70;99.50;;;;;;5015274;28;20033;-56
2022/04/08 09:12:25;;;;;;;9.73;1.30;;;8.60;99.40;;;;;;4987403;28;20410;-57
2022/04/08 09:14:53;;;;;;;10.38;1.17;;;8.60;99.70;;;;;;4994218;28;20050;-56
2022/04/08 09:17:24;;;;;;;12.50;3.67;;;8.80;99.90;;;;;;5011946;28;20049;-56
2022/04/08 09:19:51;;;;;;;5.65;1.00;;;9.00;99.40;;;;;;4990160;28;20367;-57
2022/04/08 09:22:18;;;;;;;5.25;1.15;;;9.00;99.30;;;;;;4987243;28;20049;-57
2022/04/08 09:24:44;;;;;;;3.90;0.98;;;8.60;97.00;;;;;;4991692;28;20041;-56
2022/04/08 09:27:11;;;;;;;4.25;1.20;;;8.60;96.80;;;;;;4995396;28;20045;-57
2022/04/08 09:29:37;;;;;;;3.88;1.15;;;8.70;96.60;;;;;;4997933;28;20038;-55
2022/04/08 09:32:10;;;;;;;6.00;1.30;;;8.70;96.30;;;;;;4996153;28;20056;-55
2022/04/08 09:34:37;;;;;;;8.65;1.75;;;8.70;97.20;;;;;;4988470;28;20041;-57
2022/04/08 09:37:11;;;;;;;9.70;1.65;;;9.00;97.60;;;;;;5000923;28;20064;-56
2022/04/08 09:39:57;;;;;;;5.97;1.45;;;9.20;96.90;;;;;;4980385;28;20406;-56
2022/04/08 09:42:24;;;;;;;5.32;1.02;;;9.20;96.70;;;;;;4989710;28;20054;-56
2022/04/08 09:44:51;;;;;;;6.72;1.52;;;9.10;96.60;;;;;;4993880;28;20056;-57
2022/04/08 09:47:16;;;;;;;6.45;1.30;;;9.00;95.40;;;;;;4991475;28;20038;-57
2022/04/08 09:49:42;;;;;;;8.63;1.27;;;9.00;96.70;;;;;;4992940;28;20044;-57
2022/04/08 09:52:10;;;;;;;5.10;1.15;;;9.30;97.30;;;;;;4977083;28;20037;-56
2022/04/08 09:54:39;;;;;;;6.70;1.35;;;9.50;97.60;;;;;;4985909;28;20068;-56
2022/04/08 09:57:11;;;;;;;5.10;1.05;;;9.70;97.40;;;;;;4989296;28;20056;-57
2022/04/08 09:59:38;;;;;;;6.68;1.00;;;9.80;96.20;;;;;;4978529;28;20038;-57
2022/04/08 10:02:05;;;;;;;5.55;1.27;;;10.10;97.00;;;;;;4994318;28;20405;-57
2022/04/08 10:04:33;;;;;;;5.78;1.00;;;10.30;95.80;;;;;;4980567;28;20053;-56
2022/04/08 10:06:58;;;;;;;7.47;1.25;;;10.30;94.20;;;;;;4993786;28;20117;-56
2022/04/08 10:09:32;;;;;;;6.45;1.02;;;10.10;94.90;;;;;;4982113;28;20054;-56
2022/04/08 10:12:07;;;;;;;7.13;1.75;;;9.90;94.50;;;;;;4989182;28;20483;-57
2022/04/08 10:14:58;;;;;;;5.95;2.15;;;9.90;95.00;;;;;;5001293;28;20045;-56
2022/04/08 10:17:24;;;;;;;4.80;1.25;;;9.90;96.00;;;;;;4988924;28;20648;-57
2022/04/08 10:19:49;;;;;;;3.22;1.10;;;9.40;95.10;;;;;;5013943;28;20033;-56
2022/04/08 10:22:17;;;;;;;4.93;1.30;;;9.10;98.00;;;;;;4998371;28;20046;-56
2022/04/08 10:24:53;;;;;;;2.10;0.85;;;8.70;99.80;;;;;;4984112;28;20056;-57
2022/04/08 10:27:37;;;;;;;1.83;0.82;;;8.60;99.90;;;;;;4985755;28;20036;-57
2022/04/08 10:30:21;;;;;;;2.73;0.60;;;8.30;98.80;;;;;;4996418;28;20054;-56
2022/04/08 10:33:01;;;;;;;4.88;0.98;;;8.50;99.90;;;;;;4977378;28;20463;-56
2022/04/08 10:35:28;;;;;;;6.72;1.13;;;8.60;99.90;;;;;;4996252;28;20042;-57
2022/04/08 10:38:04;;;;;;;4.95;1.50;;;8.50;99.90;;;;;;4979721;28;20124;-55
2022/04/08 10:40:38;;;;;;;5.15;1.30;;;8.30;99.90;;;;;;4992001;28;20083;-57
2022/04/08 10:43:07;;;;;;;4.05;2.10;;;8.30;99.90;;;;;;4980293;28;20034;-56
2022/04/08 10:45:33;;;;;;;4.03;1.20;;;8.60;99.90;;;;;;4996227;28;20153;-57
2022/04/08 10:48:20;;;;;;;6.25;2.13;;;8.80;99.90;;;;;;4998244;28;20137;-56
2022/04/08 10:50:46;;;;;;;5.57;1.30;;;9.00;99.90;;;;;;4991833;28;20045;-62
2022/04/08 10:53:18;;;;;;;5.38;1.33;;;9.00;99.90;;;;;;5004081;28;20088;-63
2022/04/08 10:56:04;;;;;;;6.25;1.50;;;9.10;99.90;;;;;;4994907;28;20034;-56
2022/04/08 10:58:35;;;;;;;5.93;1.50;;;8.90;99.90;;;;;;5008463;28;20469;-57
2022/04/08 11:01:16;;;;;;;10.68;2.15;;;8.80;99.90;;;;;;4969162;28;20041;-63
2022/04/08 11:03:47;;;;;;;5.93;1.60;;;8.80;99.90;;;;;;4984431;28;20029;-57
2022/04/08 11:06:14;;;;;;;4.53;1.27;;;8.70;99.90;;;;;;4980973;28;20033;-57
2022/04/08 11:08:40;;;;;;;6.22;1.20;;;8.60;99.90;;;;;;4982375;28;20482;-55
2022/04/08 11:11:07;;;;;;;5.10;1.08;;;8.60;97.60;;;;;;4999452;28;20037;-62
2022/04/08 11:13:32;;;;;;;5.65;1.30;;;8.80;97.10;;;;;;4997196;28;20112;-59
2022/04/08 11:15:58;;;;;;;5.05;0.95;;;9.00;95.90;;;;;;4998030;28;20045;-56
2022/04/08 11:18:27;;;;;;;9.18;2.20;;;9.00;95.30;;;;;;4990400;28;20859;-56
2022/04/08 11:20:53;;;;;;;6.28;1.65;;;9.10;95.60;;;;;;4999566;28;20049;-56
2022/04/08 11:23:30;;;;;;;5.28;1.00;;;9.20;94.40;;;;;;4999565;28;20042;-55
2022/04/08 11:25:56;;;;;;;3.65;1.10;;;9.20;94.30;;;;;;4995830;28;20046;-59
2022/04/08 11:28:22;;;;;;;6.28;1.75;;;9.40;94.80;;;;;;4994753;28;20145;-57
2022/04/08 11:30:55;;;;;;;5.32;1.10;;;9.40;94.10;;;;;;4999560;28;20045;-56
2022/04/08 11:33:21;;;;;;;8.05;1.30;;;9.40;93.00;;;;;;4979042;28;20081;-55
2022/04/08 11:35:53;;;;;;;9.43;1.30;;;9.30;92.90;;;;;;4998379;28;20084;-55
2022/04/08 11:38:22;;;;;;;6.05;1.20;;;9.20;92.80;;;;;;4997091;28;20089;-59
2022/04/08 11:40:48;;;;;;;7.53;1.38;;;9.60;94.40;;;;;;5010132;28;20026;-59
2022/04/08 11:43:16;;;;;;;10.38;1.42;;;9.90;94.00;;;;;;4998471;28;20505;-57
2022/04/08 11:45:46;;;;;;;19.83;4.28;;;10.10;92.70;;;;;;4992006;28;20054;-56
2022/04/08 11:48:20;;;;;;;5.85;1.67;;;9.70;93.40;;;;;;4972152;28;20054;-62
2022/04/08 11:50:47;;;;;;;;;;;9.70;93.70;;;;;;4997459;28;20076;-55
2022/04/08 11:53:15;;;;;;;4.82;1.50;;;9.70;93.10;;;;;;5003482;28;19917;-57
2022/04/08 11:55:55;;;;;;;6.43;1.58;;;10.00;93.10;;;;;;4993223;28;20060;-57
2022/04/08 11:58:21;;;;;;;7.93;1.63;;;10.00;91.60;;;;;;4993557;28;20052;-62
2022/04/08 12:00:49;;;;;;;6.97;1.67;;;9.70;91.60;;;;;;4996042;28;20045;-63
2022/04/08 12:03:32;;;;;;;6.13;1.38;;;9.70;93.10;;;;;;5000498;28;20061;-57
2022/04/08 12:06:00;;;;;;;10.18;2.00;;;9.90;93.40;;;;;;5017557;28;20030;-56
2022/04/08 12:08:26;;;;;;;6.28;1.30;;;10.10;93.60;;;;;;4994430;28;20050;-57
2022/04/08 12:10:54;;;;;;;5.38;1.42;;;10.20;91.20;;;;;;4983443;28;20041;-63
2022/04/08 12:13:23;;;;;;;8.60;1.27;;;10.10;92.30;;;;;;4989761;28;20046;-58
2022/04/08 12:15:50;;;;;;;10.70;1.83;;;10.10;90.40;;;;;;4996788;28;20080;-58
2022/04/08 12:18:32;;;;;;;7.93;1.50;;;10.20;91.50;;;;;;4994209;28;20560;-56
2022/04/08 12:21:00;;;;;;;9.88;1.60;;;10.30;90.90;;;;;;5016997;28;20903;-62
2022/04/08 12:23:27;;;;;;;7.70;1.40;;;10.00;88.10;;;;;;4979423;28;20053;-54
2022/04/08 12:25:56;;;;;;;7.38;1.73;;;9.80;83.50;;;;;;4994694;28;20040;-53
2022/04/08 12:28:28;;;;;;;5.90;1.15;;;9.90;86.00;;;;;;5010518;28;20341;-53
2022/04/08 12:30:54;;;;;;;4.72;1.13;;;10.50;87.70;;;;;;4993088;28;20034;-52
2022/04/08 12:33:20;;;;;;;6.85;1.08;;;10.60;85.70;;;;;;4977401;28;20482;-64
2022/04/08 12:35:46;;;;;;;7.95;1.33;;;10.70;83.50;;;;;;4992702;28;20041;-59
2022/04/08 12:38:14;;;;;;;4.80;1.40;;;11.00;87.80;;;;;;4977106;28;20127;-57
2022/04/08 12:40:41;;;;;;;7.07;1.30;;;10.80;85.60;;;;;;4997024;28;20528;-55
2022/04/08 12:43:09;;;;;;;6.43;1.40;;;10.60;88.00;;;;;;4996797;28;20057;-58
2022/04/08 12:45:35;;;;;;;5.43;1.20;;;10.50;89.10;;;;;;4980955;28;20045;-55
2022/04/08 12:48:00;;;;;;;5.30;1.25;;;10.20;85.90;;;;;;5008455;28;20410;-61
2022/04/08 12:50:28;;;;;;;8.80;1.50;;;9.60;86.60;;;;;;4974879;28;20510;-60
2022/04/08 12:52:54;;;;;;;7.68;1.42;;;9.60;84.50;;;;;;4991301;28;20038;-60
2022/04/08 12:55:20;;;;;;;6.03;1.20;;;9.60;84.90;;;;;;4983139;28;20405;-57
2022/04/08 12:57:48;;;;;;;10.20;1.15;;;9.10;80.80;;;;;;4984940;28;20038;-56